Elk, Washington
Current Conditions -  °F | °C
As of 11:53 AM on Friday 28 Nov 2014 (Local Time) from KDEW Reporting Station
Broken Clouds Broken Clouds  
Wind Chill: 52°   Ceiling: 9500
Heat Index: 52°   Visibility: 10mi
Dew Point: 42°   Wind: 20mph
Humidity: 69%   Direction: 200°SSW
Pressure: 29.42"   Gusts: 35mph
Location:  48.02°N, 117.28°W
Report Text: KDEW 281953Z AUTO 20017G30KT 10SM SCT080 BKN095 11/06 A2942 RMK AO2 PK WND 20032/1927 SLP963 T01110056
Loading
Personal Weather Stations






























Interactive Weather Map New forecast layout! Learn more

10-Day Weather Forecast

Advertisements
Track Severe Weather on mobile